Terminal Aerodrome Forecast
Issued by NWS

Home | Current Version | Previous Version | Text Only | Print | Product List | Glossary On
Versions: 1 2 3 4 5 6 7 8 9 10 11 12 13 14 15 16 17 18 19
000
FTUS44 KTSA 021700
TAFRVS
TAF
KRVS 021724Z 0218/0318 16005KT P6SM VCSH SCT040 BKN110 OVC250
      TEMPO 0218/0222 4SM -TSRA BKN035CB
     FM022200 15009KT P6SM BKN250
     FM031500 18011KT P6SM BKN250=

USA.gov is the U.S. government's official web portal to all federal, state and local government web resources and services.